Map

Track Data

SID SEASON NUMBER BASIN SUBBASIN NAME ISO_TIME NATURE LAT LON WMO_WIND WMO_PRES WMO_AGENCY TRACK_TYPE DIST2LAND LANDFALL IFLAG USA_AGENCY USA_ATCF_ID USA_LAT USA_LON USA_RECORD USA_STATUS USA_WIND USA_PRES USA_SSHS USA_R34_NE USA_R34_SE USA_R34_SW USA_R34_NW USA_R50_NE USA_R50_SE USA_R50_SW USA_R50_NW USA_R64_NE USA_R64_SE USA_R64_SW USA_R64_NW USA_POCI USA_ROCI USA_RMW USA_EYE TOKYO_LAT TOKYO_LON TOKYO_GRADE TOKYO_WIND TOKYO_PRES TOKYO_R50_DIR TOKYO_R50_LONG TOKYO_R50_SHORT TOKYO_R30_DIR TOKYO_R30_LONG TOKYO_R30_SHORT TOKYO_LAND CMA_LAT CMA_LON CMA_CAT CMA_WIND CMA_PRES HKO_LAT HKO_LON HKO_CAT HKO_WIND HKO_PRES NEWDELHI_LAT NEWDELHI_LON NEWDELHI_GRADE NEWDELHI_WIND NEWDELHI_PRES NEWDELHI_CI NEWDELHI_DP NEWDELHI_POCI REUNION_LAT REUNION_LON REUNION_TYPE REUNION_WIND REUNION_PRES REUNION_TNUM REUNION_CI REUNION_RMW REUNION_R34_NE REUNION_R34_SE REUNION_R34_SW REUNION_R34_NW REUNION_R50_NE REUNION_R50_SE REUNION_R50_SW REUNION_R50_NW REUNION_R64_NE REUNION_R64_SE REUNION_R64_SW REUNION_R64_NW BOM_LAT BOM_LON BOM_TYPE BOM_WIND BOM_PRES BOM_TNUM BOM_CI BOM_RMW BOM_R34_NE BOM_R34_SE BOM_R34_SW BOM_R34_NW BOM_R50_NE BOM_R50_SE BOM_R50_SW BOM_R50_NW BOM_R64_NE BOM_R64_SE BOM_R64_SW BOM_R64_NW BOM_ROCI BOM_POCI BOM_EYE BOM_POS_METHOD BOM_PRES_METHOD NADI_LAT NADI_LON NADI_CAT NADI_WIND NADI_PRES WELLINGTON_LAT WELLINGTON_LON WELLINGTON_WIND WELLINGTON_PRES DS824_LAT DS824_LON DS824_STAGE DS824_WIND DS824_PRES TD9636_LAT TD9636_LON TD9636_STAGE TD9636_WIND TD9636_PRES TD9635_LAT TD9635_LON TD9635_WIND TD9635_PRES TD9635_ROCI NEUMANN_LAT NEUMANN_LON NEUMANN_CLASS NEUMANN_WIND NEUMANN_PRES MLC_LAT MLC_LON MLC_CLASS MLC_WIND MLC_PRES USA_GUST BOM_GUST BOM_GUST_PER REUNION_GUST REUNION_GUST_PER USA_SEAHGT USA_SEARAD_NE USA_SEARAD_SE USA_SEARAD_SW USA_SEARAD_NW STORM_SPEED STORM_DIR
1904046S13055 1904 3 SI MM NOT_NAMED 1904-02-14 18:00:00 NR -13.4000 55.3000 main 555 541 __________O___ -1 -13.4000 55.3000 7 3 223
1904046S13055 1904 3 SI MM NOT_NAMED 1904-02-14 21:00:00 NR -13.5234 55.1828 main 541 527 __________P___ -1 -13.5234 55.1828 7 4 223
1904046S13055 1904 3 SI MM NOT_NAMED 1904-02-15 00:00:00 NR -13.6574 55.0524 main 523 499 __________P___ -1 -13.6574 55.0524 7 4 224
1904046S13055 1904 3 SI MM NOT_NAMED 1904-02-15 03:00:00 NR -13.8127 54.8959 main 499 471 __________P___ -1 -13.8127 54.8959 7 5 225
1904046S13055 1904 3 SI MM NOT_NAMED 1904-02-15 06:00:00 NR -14.0000 54.7000 main 471 444 __________O___ -1 -14.0000 54.7000 7 6 226
1904046S13055 1904 3 SI MM NOT_NAMED 1904-02-15 09:00:00 NR -14.2270 54.4569 main 444 405 __________P___ -1 -14.2270 54.4569 7 7 226
1904046S13055 1904 3 SI MM NOT_NAMED 1904-02-15 12:00:00 NR -14.4902 54.1800 main 405 368 __________P___ -1 -14.4902 54.1800 7 8 225
1904046S13055 1904 3 SI MM NOT_NAMED 1904-02-15 15:00:00 NR -14.7832 53.8881 main 368 333 __________P___ -1 -14.7832 53.8881 7 8 223
1904046S13055 1904 3 SI MM NOT_NAMED 1904-02-15 18:00:00 NR -15.1000 53.6000 main 333 300 __________O___ -1 -15.1000 53.6000 7 9 220
1904046S13055 1904 3 SI MM NOT_NAMED 1904-02-15 21:00:00 NR -15.4447 53.3147 main 300 280 __________P___ -1 -15.4447 53.3147 7 9 217
1904046S13055 1904 3 SI MM NOT_NAMED 1904-02-16 00:00:00 NR -15.8076 53.0405 main 271 258 __________P___ -1 -15.8076 53.0405 7 9 215
1904046S13055 1904 3 SI MM NOT_NAMED 1904-02-16 03:00:00 NR -16.1666 52.7960 main 261 250 __________P___ -1 -16.1666 52.7960 7 8 211
1904046S13055 1904 3 SI MM NOT_NAMED 1904-02-16 06:00:00 NR -16.5000 52.6000 main 255 250 __________O___ -1 -16.5000 52.6000 7 7 207
1904046S13055 1904 3 SI MM NOT_NAMED 1904-02-16 09:00:00 NR -16.7704 52.4701 main 260 250 __________P___ -1 -16.7704 52.4701 7 6 201
1904046S13055 1904 3 SI MM NOT_NAMED 1904-02-16 12:00:00 NR -17.0148 52.3894 main 259 259 __________P___ -1 -17.0148 52.3894 7 5 195
1904046S13055 1904 3 SI MM NOT_NAMED 1904-02-16 15:00:00 NR -17.2517 52.3390 main 266 266 __________P___ -1 -17.2517 52.3390 7 5 190
1904046S13055 1904 3 SI MM NOT_NAMED 1904-02-16 18:00:00 NR -17.5000 52.3000 main 276 274 __________O___ -1 -17.5000 52.3000 7 5 190
1904046S13055 1904 3 SI MM NOT_NAMED 1904-02-16 21:00:00 NR -17.7694 52.2347 main 278 278 __________P___ -1 -17.7694 52.2347 7 6 192
1904046S13055 1904 3 SI MM NOT_NAMED 1904-02-17 00:00:00 NR -18.0550 52.1775 main 289 280 __________P___ -1 -18.0550 52.1775 7 6 189
1904046S13055 1904 3 SI MM NOT_NAMED 1904-02-17 03:00:00 NR -18.3631 52.1316 main 285 285 __________P___ -1 -18.3631 52.1316 7 7 186
1904046S13055 1904 3 SI MM NOT_NAMED 1904-02-17 06:00:00 NR -18.7000 52.1000 main 290 290 __________O___ -1 -18.7000 52.1000 7 7 185
1904046S13055 1904 3 SI MM NOT_NAMED 1904-02-17 09:00:00 NR -19.0794 52.0775 main 301 301 __________P___ -1 -19.0794 52.0775 7 8 183
1904046S13055 1904 3 SI MM NOT_NAMED 1904-02-17 12:00:00 NR -19.4850 52.0700 main 317 317 __________P___ -1 -19.4850 52.0700 7 8 0
1904046S13055 1904 3 SI MM NOT_NAMED 1904-02-17 15:00:00 NR -19.8981 52.0776 main 330 330 __________P___ -1 -19.8981 52.0776 7 8 178
1904046S13055 1904 3 SI MM NOT_NAMED 1904-02-17 18:00:00 NR -20.3000 52.1000 main 334 325 __________O___ -1 -20.3000 52.1000 7 8 177
1904046S13055 1904 3 SI MM NOT_NAMED 1904-02-17 21:00:00 NR -20.6806 52.1275 main 325 311 __________P___ -1 -20.6806 52.1275 7 8 174
1904046S13055 1904 3 SI MM NOT_NAMED 1904-02-18 00:00:00 NR -21.0449 52.1700 main 311 311 __________P___ -1 -21.0449 52.1700 7 7 172
1904046S13055 1904 3 SI MM NOT_NAMED 1904-02-18 03:00:00 NR -21.3868 52.2275 main 312 303 __________P___ -1 -21.3868 52.2275 7 7 170
1904046S13055 1904 3 SI MM NOT_NAMED 1904-02-18 06:00:00 NR -21.7000 52.3000 main 307 303 __________O___ -1 -21.7000 52.3000 7 6 166
1904046S13055 1904 3 SI MM NOT_NAMED 1904-02-18 09:00:00 NR -21.9828 52.3816 main 306 304 __________P___ -1 -21.9828 52.3816 7 6 163
1904046S13055 1904 3 SI MM NOT_NAMED 1904-02-18 12:00:00 NR -22.2375 52.4776 main 304 304 __________P___ -1 -22.2375 52.4776 7 5 159
1904046S13055 1904 3 SI MM NOT_NAMED 1904-02-18 15:00:00 NR -22.4734 52.5848 main 309 304 __________P___ -1 -22.4734 52.5848 7 5 156
1904046S13055 1904 3 SI MM NOT_NAMED 1904-02-18 18:00:00 NR -22.7000 52.7000 main 310 307 __________O___ -1 -22.7000 52.7000 7 5 155
1904046S13055 1904 3 SI MM NOT_NAMED 1904-02-18 21:00:00 NR -22.9322 52.8179 main 313 311 __________P___ -1 -22.9322 52.8179 7 5 154
1904046S13055 1904 3 SI MM NOT_NAMED 1904-02-19 00:00:00 NR -23.1575 52.9426 main 325 317 __________P___ -1 -23.1575 52.9426 7 5 152
1904046S13055 1904 3 SI MM NOT_NAMED 1904-02-19 03:00:00 NR -23.3791 53.0710 main 325 325 __________P___ -1 -23.3791 53.0710 7 5 152
1904046S13055 1904 3 SI MM NOT_NAMED 1904-02-19 06:00:00 NR -23.6000 53.2000 main 335 335 __________O___ -1 -23.6000 53.2000 7 5 153
1904046S13055 1904 3 SI MM NOT_NAMED 1904-02-19 09:00:00 NR -23.8331 53.3211 main 346 346 __________P___ -1 -23.8331 53.3211 7 5 155
1904046S13055 1904 3 SI MM NOT_NAMED 1904-02-19 12:00:00 NR -24.0649 53.4427 main 368 363 __________P___ -1 -24.0649 53.4427 7 5 154
1904046S13055 1904 3 SI MM NOT_NAMED 1904-02-19 15:00:00 NR -24.2893 53.5679 main 377 377 __________P___ -1 -24.2893 53.5679 7 5 152
1904046S13055 1904 3 SI MM NOT_NAMED 1904-02-19 18:00:00 NR -24.5000 53.7000 main 393 393 __________O___ -1 -24.5000 53.7000 7 5 148
1904046S13055 1904 3 SI MM NOT_NAMED 1904-02-19 21:00:00 NR -24.6926 53.8411 main 409 406 __________P___ -1 -24.6926 53.8411 7 5 145
1904046S13055 1904 3 SI MM NOT_NAMED 1904-02-20 00:00:00 NR -24.8702 53.9897 main 423 420 __________P___ -1 -24.8702 53.9897 7 4 142
1904046S13055 1904 3 SI MM NOT_NAMED 1904-02-20 03:00:00 NR -25.0376 54.1435 main 430 427 __________P___ -1 -25.0376 54.1435 7 4 140
1904046S13055 1904 3 SI MM NOT_NAMED 1904-02-20 06:00:00 NR -25.2000 54.3000 main 444 __________O___ -1 -25.2000 54.3000 7 4 139

About IBTrACS Database

This database is a web-friendly format of International Best Track Archive for Climate Stewardship (IBTrACS), a global best track data archive curated by NOAA dating back to 1842.

Updated: 2021-11-26